Time;durP1;ratioP1;P1;durP2;ratioP2;P2;SDS_P1;SDS_P2;PMS_P1;PMS_P2;Temp;Humidity;BMP_temperature;BMP_pressure;BME280_temperature;BME280_humidity;BME280_pressure;Samples;Min_cycle;Max_cycle;Signal;HPM_P1;HPM_P2
2022/01/23 00:01:48;;;;;;;41.28;30.40;;;;;;;4.18;99.77;103404.41;5078489;28;20460;-89
2022/01/23 00:04:17;;;;;;;39.85;29.63;;;;;;;4.17;99.47;103399.97;5092858;28;20107;-90
2022/01/23 00:06:47;;;;;;;43.30;29.70;;;;;;;4.06;99.44;103370.31;5076802;28;20490;-89
2022/01/23 00:09:16;;;;;;;40.30;30.13;;;;;;;3.89;99.74;103342.84;5077059;28;20028;-89
2022/01/23 00:11:49;;;;;;;38.08;28.75;;;;;;;4.13;99.67;103385.88;5093416;28;20162;-89
2022/01/23 00:19:48;;;;;;;40.20;29.08;;;;;;;3.82;99.91;103330.81;5093340;28;20062;-89
2022/01/23 00:22:14;;;;;;;37.47;28.92;;;;;;;4.06;99.54;103373.91;5092379;28;20071;-90
2022/01/23 00:32:47;;;;;;;46.70;30.20;;;;;;;4.20;100.00;103391.69;5094199;28;20023;-89
2022/01/23 00:35:13;;;;;;;41.58;30.55;;;;;;;3.77;100.00;103327.63;5108788;28;20038;-89
2022/01/23 00:37:41;;;;;;;41.50;30.35;;;;;;;3.79;100.00;103323.00;5076238;28;20034;-89
2022/01/23 00:40:07;;;;;;;38.92;28.63;;;;;;;4.01;100.00;103357.22;5092820;28;20020;-89
2022/01/23 00:42:35;;;;;;;38.85;28.70;;;;;;;4.00;100.00;103351.00;5093029;28;20475;-89
2022/01/23 00:47:41;;;;;;;37.42;28.85;;;;;;;3.74;100.00;103319.78;5097238;28;20142;-89
2022/01/23 00:50:09;;;;;;;39.42;28.17;;;;;;;3.76;100.00;103324.06;5096589;28;20586;-89
2022/01/23 00:52:34;;;;;;;37.47;28.08;;;;;;;3.91;100.00;103334.69;5079423;28;20063;-88
2022/01/23 00:55:04;;;;;;;40.35;28.35;;;;;;;3.72;100.00;103309.16;5096696;28;20011;-89
2022/01/23 00:57:33;;;;;;;39.53;27.88;;;;;;;3.73;100.00;103299.28;5095924;28;20060;-89
2022/01/23 01:00:00;;;;;;;43.80;30.35;;;;;;;3.72;100.00;103311.84;5095210;28;20034;-89
2022/01/23 01:02:26;;;;;;;40.45;28.15;;;;;;;3.77;100.00;103322.25;5096213;28;20131;-89
2022/01/23 01:04:52;;;;;;;38.50;27.30;;;;;;;4.20;100.00;103378.25;5079463;28;20243;-89
2022/01/23 01:07:20;;;;;;;38.00;28.05;;;;;;;3.83;100.00;103311.06;5096093;28;20023;-89
2022/01/23 01:09:50;;;;;;;36.72;26.85;;;;;;;4.20;100.00;103379.09;5096160;28;20034;-89
2022/01/23 01:12:32;;;;;;;39.47;27.42;;;;;;;3.84;99.64;103319.00;5063745;28;20020;-89
2022/01/23 01:15:25;;;;;;;;;;;;;;;4.30;99.87;103376.63;5096375;28;20474;-89
2022/01/23 01:31:29;;;;;;;35.70;27.08;;;;;;;3.85;99.67;103314.50;5116869;28;20528;-89
2022/01/23 01:36:56;;;;;;;37.95;27.75;;;;;;;4.13;99.62;103361.72;5088067;28;20061;-89
2022/01/23 01:39:26;;;;;;;40.10;28.25;;;;;;;4.03;100.00;103339.16;5100027;28;20019;-89
2022/01/23 01:41:53;;;;;;;37.72;27.75;;;;;;;4.13;99.81;103353.66;5100189;28;20026;-89
2022/01/23 01:44:22;;;;;;;38.90;29.02;;;;;;;4.10;99.98;103367.31;5083162;28;20024;-89
2022/01/23 01:46:48;;;;;;;42.42;28.90;;;;;;;4.02;99.52;103345.53;5092846;28;20045;-89
2022/01/23 01:49:14;;;;;;;40.45;27.65;;;;;;;3.92;99.96;103344.47;5075964;28;20349;-89
2022/01/23 01:51:44;;;;;;;41.95;29.17;;;;;;;4.22;100.00;103387.06;5076457;28;20055;-90
2022/01/23 01:54:16;;;;;;;37.42;27.55;;;;;;;3.79;100.00;103320.31;5093172;28;20024;-89
2022/01/23 01:57:02;;;;;;;39.60;28.23;;;;;;;4.02;100.00;103365.19;5092913;28;20020;-90
2022/01/23 02:10:34;;;;;;;38.40;27.08;;;;;;;3.90;99.90;103341.91;5077985;28;20043;-89
2022/01/23 02:13:12;;;;;;;40.13;26.88;;;;;;;3.89;99.92;103332.09;5059521;28;20437;-89
2022/01/23 02:24:12;;;;;;;36.80;27.17;;;;;;;4.21;99.56;103358.50;5081183;28;20093;-90
2022/01/23 02:57:03;;;;;;;38.42;25.88;;;;;;;4.16;100.00;103347.19;5116578;28;20046;-88
2022/01/23 02:59:36;;;;;;;37.42;25.73;;;;;;;4.18;100.00;103354.19;5098449;28;20023;-89
2022/01/23 03:04:51;;;;;;;38.63;25.83;;;;;;;4.12;100.00;103327.78;5118206;28;20076;-89
2022/01/23 03:15:03;;;;;;;37.00;24.88;;;;;;;4.26;100.00;103358.16;5099341;28;20024;-89
2022/01/23 03:28:26;;;;;;;36.00;25.48;;;;;;;3.95;100.00;103318.22;5097846;28;20027;-89
2022/01/23 03:33:31;;;;;;;37.40;26.52;;;;;;;4.24;99.78;103370.81;5116316;28;20031;-89
2022/01/23 03:35:57;;;;;;;35.58;25.63;;;;;;;3.94;99.93;103332.66;5097613;28;20019;-89
2022/01/23 03:38:23;;;;;;;37.08;26.02;;;;;;;3.81;99.89;103304.94;5080229;28;20023;-89
2022/01/23 03:40:48;;;;;;;39.75;26.02;;;;;;;3.78;99.88;103306.03;5097226;28;20106;-89
2022/01/23 03:43:15;;;;;;;39.20;26.90;;;;;;;3.97;100.00;103326.19;5097297;28;20478;-89
2022/01/23 03:50:53;;;;;;;39.58;28.70;;;;;;;3.98;99.91;103336.81;5073419;28;20796;-89
2022/01/23 03:53:22;;;;;;;39.20;27.52;;;;;;;3.80;100.00;103317.50;5097303;28;20065;-89
2022/01/23 03:55:50;;;;;;;38.65;27.83;;;;;;;3.92;100.00;103339.94;5097101;28;20008;-88
2022/01/23 03:58:16;;;;;;;40.33;28.00;;;;;;;3.73;99.91;103307.31;5080789;28;20364;-89
2022/01/23 04:00:44;;;;;;;40.53;27.88;;;;;;;4.00;100.00;103339.38;5080022;28;20027;-89
2022/01/23 04:03:17;;;;;;;42.00;28.13;;;;;;;4.13;100.00;103380.50;5096597;28;20096;-89
2022/01/23 04:05:43;;;;;;;38.03;26.70;;;;;;;3.74;100.00;103312.59;5080118;28;20027;-90
2022/01/23 04:08:08;;;;;;;42.17;28.63;;;;;;;3.76;100.00;103315.16;5080112;28;20028;-89
2022/01/23 04:10:34;;;;;;;43.28;29.63;;;;;;;4.17;100.00;103386.53;5096472;28;20031;-89
2022/01/23 04:13:17;;;;;;;41.15;28.75;;;;;;;3.78;99.80;103323.97;5096127;28;20024;-88
2022/01/23 04:16:04;;;;;;;;;;;;;;;4.27;100.00;103389.44;5081811;28;20042;-89
2022/01/23 04:19:07;;;;;;;40.50;28.45;;;;;;;4.11;99.91;103365.50;5115145;28;19911;-89
2022/01/23 04:32:47;;;;;;;41.67;28.95;;;;;;;3.96;99.28;103337.91;5114760;28;20035;-89
2022/01/23 04:59:49;;;;;;;40.13;28.17;;;;;;;4.06;99.22;103360.47;5098788;28;20093;-89
2022/01/23 05:05:00;;;;;;;40.40;27.17;;;;;;;4.09;99.90;103365.63;5098125;28;20036;-89
2022/01/23 05:07:28;;;;;;;42.83;28.88;;;;;;;3.98;99.54;103331.44;5100233;28;20540;-87
2022/01/23 05:09:59;;;;;;;44.53;28.42;;;;;;;4.24;99.90;103368.13;5100956;28;20031;-89
2022/01/23 05:12:29;;;;;;;42.83;29.25;;;;;;;4.25;99.58;103359.97;5101700;28;20102;-89
2022/01/23 05:14:56;;;;;;;40.25;28.50;;;;;;;4.02;99.36;103324.88;5084756;28;20114;-88
2022/01/23 05:17:22;;;;;;;40.90;29.02;;;;;;;3.99;99.15;103318.88;5084525;28;20019;-88
2022/01/23 05:19:48;;;;;;;41.85;28.77;;;;;;;4.29;99.11;103363.28;5102623;28;20474;-89
2022/01/23 05:24:48;;;;;;;41.22;29.40;;;;;;;4.10;99.41;103321.63;5120154;28;20019;-89
2022/01/23 05:27:16;;;;;;;38.35;28.45;;;;;;;4.09;98.58;103327.13;5086328;28;20040;-89
2022/01/23 05:29:42;;;;;;;36.75;26.77;;;;;;;3.98;98.68;103318.00;5102287;28;20112;-89
2022/01/23 05:32:10;;;;;;;43.45;28.92;;;;;;;4.25;98.58;103375.22;5101822;28;20019;-88
2022/01/23 05:34:38;;;;;;;40.35;27.27;;;;;;;4.27;98.64;103370.63;5085209;28;20112;-88
2022/01/23 05:37:07;;;;;;;42.63;28.67;;;;;;;4.24;99.12;103366.31;5101239;28;20046;-89
2022/01/23 05:39:33;;;;;;;44.10;27.98;;;;;;;4.07;99.08;103347.88;5100453;28;20029;-89
2022/01/23 05:42:07;;;;;;;39.40;28.50;;;;;;;4.03;99.07;103334.66;5083845;28;20114;-88
2022/01/23 05:44:40;;;;;;;40.28;27.92;;;;;;;4.22;99.22;103360.19;5098399;28;20028;-89
2022/01/23 05:47:09;;;;;;;38.83;27.35;;;;;;;4.31;99.59;103367.59;5098173;28;20043;-88
2022/01/23 05:49:37;;;;;;;41.13;28.80;;;;;;;4.16;99.03;103348.06;5097874;28;20038;-88
2022/01/23 05:52:04;;;;;;;41.33;27.98;;;;;;;4.34;98.67;103378.13;5098230;28;20027;-88
2022/01/23 05:54:30;;;;;;;37.53;27.23;;;;;;;4.35;98.52;103369.06;5098320;28;20016;-89
2022/01/23 05:57:03;;;;;;;41.10;28.42;;;;;;;4.14;98.77;103328.50;5098842;28;20027;-90
2022/01/23 05:59:29;;;;;;;41.72;29.92;;;;;;;4.36;98.61;103368.09;5099433;28;20031;-89
2022/01/23 06:01:55;;;;;;;43.05;28.67;;;;;;;4.39;98.70;103361.66;5098623;28;20022;-88
2022/01/23 06:04:22;;;;;;;43.20;29.73;;;;;;;4.53;98.66;103388.38;5080793;28;20073;-88
2022/01/23 06:06:49;;;;;;;39.03;28.58;;;;;;;4.40;98.56;103358.00;5097058;28;20020;-88
2022/01/23 06:09:32;;;;;;;41.58;29.92;;;;;;;4.54;98.42;103392.78;5116331;28;20026;-89
2022/01/23 06:11:58;;;;;;;41.40;29.70;;;;;;;4.16;98.52;103326.56;5084881;28;20027;-89
2022/01/23 06:14:25;;;;;;;41.65;30.02;;;;;;;4.33;98.32;103360.25;5098874;28;20019;-88
2022/01/23 06:16:51;;;;;;;39.50;29.15;;;;;;;4.05;98.89;103326.50;5081088;28;20500;-89
2022/01/23 06:19:21;;;;;;;41.35;30.02;;;;;;;4.04;98.72;103328.34;5080456;28;20059;-89
2022/01/23 06:21:50;;;;;;;42.28;29.60;;;;;;;4.28;98.48;103366.94;5098182;28;20046;-89
2022/01/23 06:24:25;;;;;;;41.65;29.83;;;;;;;3.99;98.50;103333.16;5098903;28;20383;-88
2022/01/23 06:26:53;;;;;;;42.55;30.60;;;;;;;4.14;98.91;103355.38;5082776;28;20382;-89
2022/01/23 06:29:30;;;;;;;44.50;30.23;;;;;;;4.02;98.92;103334.78;5099895;28;20046;-92
2022/01/23 06:31:58;;;;;;;41.92;29.90;;;;;;;4.16;99.16;103361.50;5099799;28;20053;-84
2022/01/23 06:34:24;;;;;;;45.20;30.95;;;;;;;4.39;98.63;103397.44;5096692;28;20481;-83
2022/01/23 06:36:56;;;;;;;47.80;31.85;;;;;;;4.33;99.21;103389.84;5096821;28;20035;-85
2022/01/23 06:39:22;;;;;;;43.67;29.90;;;;;;;4.34;99.34;103385.31;5080187;28;20027;-84
2022/01/23 06:41:48;;;;;;;46.03;31.00;;;;;;;4.43;99.27;103389.16;5096313;28;20039;-84
2022/01/23 06:44:19;;;;;;;48.60;32.38;;;;;;;4.43;99.21;103406.16;5098378;28;20053;-92
2022/01/23 06:47:55;;;;;;;40.90;29.73;;;;;;;4.47;98.89;103410.31;5084187;28;20040;-95
2022/01/23 06:50:36;;;;;;;44.42;29.60;;;;;;;4.27;99.17;103389.44;5098542;28;20050;-92
2022/01/23 06:53:27;;;;;;;43.78;30.20;;;;;;;4.11;99.05;103371.72;5079392;28;20039;-93
2022/01/23 06:56:01;;;;;;;;;;;;;;;4.39;99.20;103412.72;5064300;28;20380;-94
2022/01/23 06:58:40;;;;;;;45.60;30.85;;;;;;;3.85;99.05;103338.66;5076593;28;19952;-92
2022/01/23 07:01:21;;;;;;;42.25;29.92;;;;;;;3.89;99.30;103345.53;5077615;28;20020;-91
2022/01/23 07:03:50;;;;;;;44.67;30.65;;;;;;;3.97;99.50;103361.09;5077400;28;20020;-90
2022/01/23 07:06:17;;;;;;;44.40;30.65;;;;;;;4.34;99.52;103415.75;5077219;28;20024;-91
2022/01/23 07:08:43;;;;;;;44.17;30.67;;;;;;;3.98;99.36;103374.41;5076524;28;20028;-88
2022/01/23 07:11:12;;;;;;;44.38;31.20;;;;;;;4.32;99.32;103427.56;5073892;28;20024;-88
2022/01/23 07:13:39;;;;;;;43.90;31.40;;;;;;;3.90;99.26;103366.06;5070620;28;20055;-88
2022/01/23 07:16:06;;;;;;;45.72;30.58;;;;;;;3.83;99.18;103364.78;5041760;28;20040;-88
2022/01/23 07:18:34;;;;;;;44.65;30.02;;;;;;;3.97;99.45;103388.84;5041118;28;20358;-90
2022/01/23 07:21:06;;;;;;;44.33;31.13;;;;;;;3.90;99.68;103375.94;5073765;28;20020;-89
2022/01/23 07:23:33;;;;;;;42.80;30.98;;;;;;;4.15;99.23;103421.59;5074448;28;20495;-89
2022/01/23 07:26:02;;;;;;;49.58;31.50;;;;;;;4.12;99.39;103407.50;5074068;28;20024;-89
2022/01/23 07:28:43;;;;;;;47.63;31.85;;;;;;;3.97;99.25;103394.22;5077486;28;20025;-94
2022/01/23 07:31:21;;;;;;;44.22;31.75;;;;;;;4.21;99.50;103431.91;5072898;28;20028;-88
2022/01/23 07:33:47;;;;;;;43.90;31.38;;;;;;;4.09;99.27;103424.72;5072232;28;20035;-88
2022/01/23 07:36:12;;;;;;;45.50;31.85;;;;;;;4.28;99.53;103464.56;5072299;28;20376;-89
2022/01/23 07:38:40;;;;;;;46.30;30.90;;;;;;;4.10;99.54;103434.47;5074059;28;20055;-90
2022/01/23 07:41:12;;;;;;;45.95;31.33;;;;;;;4.19;99.74;103457.16;5072756;28;20026;-90
2022/01/23 07:43:37;;;;;;;46.72;30.80;;;;;;;3.89;99.93;103411.84;5073190;28;20032;-89
2022/01/23 07:46:06;;;;;;;48.28;32.75;;;;;;;4.04;100.00;103442.97;5072732;28;20560;-91
2022/01/23 07:48:33;;;;;;;49.03;32.42;;;;;;;4.04;100.00;103449.22;5078970;28;20474;-91
2022/01/23 07:51:01;;;;;;;47.80;33.42;;;;;;;4.18;100.00;103464.38;5096986;28;20029;-92
2022/01/23 07:53:27;;;;;;;46.28;32.60;;;;;;;4.20;99.90;103466.94;5078798;28;20020;-89
2022/01/23 07:55:52;;;;;;;47.40;31.92;;;;;;;4.13;100.00;103441.47;5078316;28;20416;-89
2022/01/23 07:58:18;;;;;;;47.92;32.85;;;;;;;4.12;99.93;103431.69;5095490;28;20463;-89
2022/01/23 08:00:47;;;;;;;48.50;32.65;;;;;;;3.97;99.35;103414.81;5078569;28;20034;-89
2022/01/23 08:03:16;;;;;;;47.22;32.22;;;;;;;4.25;99.74;103459.41;5095521;28;20068;-89
2022/01/23 08:05:45;;;;;;;45.17;31.73;;;;;;;4.05;99.74;103409.78;5078372;28;20020;-89
2022/01/23 08:08:11;;;;;;;44.85;31.00;;;;;;;4.33;99.42;103451.66;5095990;28;20107;-89
2022/01/23 08:10:36;;;;;;;47.20;32.60;;;;;;;4.27;99.00;103435.13;5078892;28;20150;-89
2022/01/23 08:13:06;;;;;;;47.28;32.63;;;;;;;4.20;99.11;103440.91;5078591;28;20054;-88
2022/01/23 08:15:32;;;;;;;43.30;32.17;;;;;;;4.47;99.25;103465.94;5098191;28;20051;-90
2022/01/23 08:18:03;;;;;;;45.28;30.83;;;;;;;4.08;98.80;103398.81;5099352;28;20467;-89
2022/01/23 08:20:30;;;;;;;48.55;33.03;;;;;;;4.12;98.83;103416.44;5099219;28;20064;-89
2022/01/23 08:22:58;;;;;;;44.42;32.03;;;;;;;4.54;98.95;103472.59;5095458;28;20135;-89
2022/01/23 08:25:24;;;;;;;46.25;31.42;;;;;;;4.36;98.74;103443.38;5095343;28;20023;-88
2022/01/23 08:27:49;;;;;;;43.67;31.10;;;;;;;4.45;98.44;103457.97;5095074;28;20038;-89
2022/01/23 08:30:15;;;;;;;46.20;31.65;;;;;;;4.25;98.58;103407.47;5095316;28;20056;-89
2022/01/23 08:32:41;;;;;;;43.05;31.13;;;;;;;4.41;98.45;103434.13;5095100;28;20110;-89
2022/01/23 08:35:07;;;;;;;45.85;31.05;;;;;;;4.39;98.53;103418.94;5095007;28;20020;-89
2022/01/23 08:37:42;;;;;;;43.45;30.92;;;;;;;4.80;98.46;103477.88;5095002;28;20094;-88
2022/01/23 08:40:23;;;;;;;44.90;31.60;;;;;;;4.69;98.21;103465.22;5094449;28;20011;-89
2022/01/23 08:42:51;;;;;;;46.92;31.85;;;;;;;4.60;97.97;103458.69;5112975;28;20051;-87
2022/01/23 08:45:17;;;;;;;44.05;30.85;;;;;;;4.40;98.07;103427.91;5078142;28;20031;-88
2022/01/23 08:47:53;;;;;;;47.75;31.80;;;;;;;4.46;98.21;103437.31;5094863;28;20429;-88
2022/01/23 08:50:18;;;;;;;42.67;30.63;;;;;;;4.60;97.79;103453.31;5094598;28;20035;-88
2022/01/23 08:52:44;;;;;;;47.95;32.70;;;;;;;4.90;97.58;103504.00;5094561;28;20092;-88
2022/01/23 08:55:10;;;;;;;44.97;31.40;;;;;;;4.79;97.84;103485.09;5094824;28;20042;-89
2022/01/23 08:57:39;;;;;;;45.10;30.75;;;;;;;4.87;97.37;103482.72;5060861;28;20114;-88
2022/01/23 09:00:05;;;;;;;44.80;32.05;;;;;;;4.63;97.03;103444.16;5094611;28;20574;-88
2022/01/23 09:02:30;;;;;;;43.05;31.23;;;;;;;4.68;97.11;103444.69;5094496;28;20076;-88
2022/01/23 09:04:56;;;;;;;42.78;30.85;;;;;;;5.12;96.70;103499.72;5094021;28;20024;-87
2022/01/23 09:07:22;;;;;;;43.78;30.10;;;;;;;4.71;96.20;103439.94;5082058;28;20114;-88
2022/01/23 09:09:49;;;;;;;46.45;30.90;;;;;;;5.08;95.89;103501.78;5108383;28;20524;-90
2022/01/23 09:14:51;;;;;;;41.70;30.27;;;;;;;4.79;95.80;103446.59;5092288;28;20051;-89
2022/01/23 09:17:22;;;;;;;43.70;31.27;;;;;;;5.02;95.96;103480.72;5101441;28;20019;-88
2022/01/23 09:19:47;;;;;;;43.17;30.63;;;;;;;4.81;95.50;103439.25;5094093;28;20034;-89
2022/01/23 09:22:15;;;;;;;43.83;30.65;;;;;;;5.08;95.15;103479.41;5094459;28;20023;-89
2022/01/23 09:24:43;;;;;;;43.58;30.58;;;;;;;4.97;95.35;103444.38;5094273;28;20543;-89
2022/01/23 09:27:18;;;;;;;40.20;29.83;;;;;;;5.22;95.18;103483.75;5059715;28;20460;-88
2022/01/23 09:29:48;;;;;;;42.03;29.52;;;;;;;5.23;95.33;103483.63;5064571;28;20375;-89
2022/01/23 09:32:16;;;;;;;43.47;31.25;;;;;;;5.08;94.68;103445.28;5094024;28;20023;-89
2022/01/23 09:34:43;;;;;;;43.80;30.38;;;;;;;4.96;94.54;103443.50;5093736;28;20080;-89
2022/01/23 09:37:12;;;;;;;45.22;30.55;;;;;;;5.03;94.23;103447.44;5087488;28;20380;-88
2022/01/23 09:39:44;;;;;;;42.55;29.55;;;;;;;4.99;93.99;103442.41;5074200;28;20433;-90
2022/01/23 09:42:40;;;;;;;46.47;31.60;;;;;;;5.43;94.90;103503.69;5082975;28;20080;-89
2022/01/23 09:45:09;;;;;;;41.70;30.10;;;;;;;5.35;94.06;103476.47;5080097;28;20460;-89
2022/01/23 09:47:36;;;;;;;42.40;30.52;;;;;;;5.23;93.70;103445.94;5079225;28;20027;-88
2022/01/23 09:50:10;;;;;;;42.20;30.67;;;;;;;5.44;93.38;103466.81;5073389;28;20047;-89
2022/01/23 09:52:50;;;;;;;;;;;;;;;;;;;;;
2022/01/23 09:55:16;;;;;;;41.78;30.50;;;;;;;5.55;92.06;103448.03;5096491;28;20008;-89
2022/01/23 09:57:58;;;;;;;41.30;29.75;;;;;;;5.79;92.00;103493.75;5094462;28;20467;-89
2022/01/23 10:00:27;;;;;;;42.30;29.83;;;;;;;5.79;91.67;103496.44;5077435;28;20016;-90
2022/01/23 10:02:53;;;;;;;41.70;30.08;;;;;;;5.99;91.56;103521.00;5078067;28;20054;-89
2022/01/23 10:05:35;;;;;;;40.10;29.77;;;;;;;5.69;91.38;103454.19;5077758;28;20118;-89
2022/01/23 10:08:03;;;;;;;;;;;;;;;6.24;93.64;103519.94;5089542;28;20016;-89
2022/01/23 10:10:32;;;;;;;40.88;29.15;;;;;;;5.85;90.94;103464.63;5094839;28;19912;-89
2022/01/23 10:13:00;;;;;;;39.90;30.25;;;;;;;6.10;90.49;103494.06;5078473;28;20036;-90
2022/01/23 10:15:30;;;;;;;42.35;30.17;;;;;;;6.11;90.12;103489.53;5108482;28;20122;-88
2022/01/23 10:18:00;;;;;;;43.55;30.35;;;;;;;6.02;90.17;103491.09;5082161;28;20029;-86
2022/01/23 10:20:28;;;;;;;39.15;28.60;;;;;;;6.16;90.35;103514.31;5077230;28;20012;-88
2022/01/23 10:22:57;;;;;;;39.95;28.80;;;;;;;6.33;90.13;103526.44;5077484;28;20027;-89
2022/01/23 10:25:28;;;;;;;39.78;28.90;;;;;;;6.07;89.95;103455.72;5060318;28;20349;-88
2022/01/23 10:27:56;;;;;;;38.95;29.80;;;;;;;6.21;89.65;103474.34;5076865;28;20376;-88
2022/01/23 10:30:37;;;;;;;39.05;28.58;;;;;;;6.50;89.39;103508.94;5076963;28;20116;-88
2022/01/23 10:33:08;;;;;;;43.50;29.55;;;;;;;6.47;88.85;103495.69;5076809;28;20016;-88
2022/01/23 10:35:51;;;;;;;38.70;28.25;;;;;;;6.56;88.71;103486.00;5110461;28;20028;-88
2022/01/23 10:38:18;;;;;;;38.30;28.92;;;;;;;6.61;88.33;103468.44;5110624;28;20027;-88
2022/01/23 10:40:50;;;;;;;39.92;27.75;;;;;;;6.55;87.87;103446.50;5076883;28;20024;-88
2022/01/23 10:48:45;;;;;;;38.72;28.20;;;;;;;6.79;86.28;103455.31;5094822;28;20038;-88
2022/01/23 10:51:31;;;;;;;36.38;27.25;;;;;;;6.96;87.13;103467.38;5076298;28;20027;-88
2022/01/23 10:54:18;;;;;;;41.10;27.73;;;;;;;7.35;86.98;103512.78;5076383;28;20376;-88
2022/01/23 10:57:07;;;;;;;40.03;26.50;;;;;;;7.31;85.02;103511.34;5076420;28;20357;-89
2022/01/23 10:59:47;;;;;;;38.83;27.40;;;;;;;6.90;85.41;103440.06;5094183;28;20169;-88
2022/01/23 11:02:37;;;;;;;37.67;27.33;;;;;;;7.31;85.71;103506.78;5076753;28;20022;-88
2022/01/23 11:05:05;;;;;;;34.55;25.60;;;;;;;7.22;84.28;103502.16;5070099;28;20111;-88
2022/01/23 11:07:33;;;;;;;34.92;26.42;;;;;;;6.94;83.60;103450.47;5109650;28;20424;-86
2022/01/23 11:10:07;;;;;;;36.00;26.13;;;;;;;7.33;83.69;103510.22;5079773;28;20028;-89
2022/01/23 11:18:19;;;;;;;37.38;26.67;;;;;;;6.85;83.88;103430.50;5101186;28;20034;-89
2022/01/23 11:21:15;;;;;;;37.30;26.65;;;;;;;7.07;85.17;103449.44;5078684;28;20036;-90
2022/01/23 11:23:40;;;;;;;36.25;26.73;;;;;;;7.08;83.20;103449.31;5074459;28;20177;-90
2022/01/23 11:26:18;;;;;;;38.42;27.00;;;;;;;7.23;82.75;103462.50;5076016;28;20111;-90
2022/01/23 11:28:47;;;;;;;34.53;26.42;;;;;;;7.31;82.27;103457.34;5093634;28;20015;-90
2022/01/23 11:31:48;;;;;;;35.40;26.38;;;;;;;7.43;84.16;103450.03;5093080;28;20024;-90
2022/01/23 11:34:27;;;;;;;37.78;26.92;;;;;;;7.27;82.94;103432.41;5075866;28;20024;-90
2022/01/23 11:36:56;;;;;;;37.45;26.67;;;;;;;7.55;82.17;103463.31;5076347;28;20324;-90
2022/01/23 11:54:06;;;;;;;34.22;25.27;;;;;;;7.54;81.45;103401.31;5052108;28;20067;-88
2022/01/23 11:56:42;;;;;;;37.00;26.58;;;;;;;7.85;81.10;103445.47;5087939;28;20426;-88
2022/01/23 11:59:24;;;;;;;34.72;25.98;;;;;;;8.03;80.69;103466.47;5072079;28;20119;-88
2022/01/23 12:02:20;;;;;;;37.63;28.27;;;;;;;8.13;82.50;103466.53;5091737;28;20409;-89
2022/01/23 12:05:21;;;;;;;37.83;28.13;;;;;;;8.13;82.23;103464.66;5071744;28;20342;-88
2022/01/23 12:08:21;;;;;;;37.25;27.83;;;;;;;7.84;82.41;103414.03;5071690;28;20024;-91
2022/01/23 12:11:17;;;;;;;37.20;28.30;;;;;;;8.15;81.87;103456.41;5059698;28;20032;-89
2022/01/23 12:19:21;;;;;;;34.63;26.73;;;;;;;8.22;81.18;103446.75;5073673;28;20551;-89
2022/01/23 12:21:50;;;;;;;38.13;27.85;;;;;;;8.16;79.87;103439.19;5071559;28;20103;-88
2022/01/23 12:24:17;;;;;;;34.40;25.45;;;;;;;7.87;78.71;103389.41;5071703;28;20055;-89
2022/01/23 12:26:51;;;;;;;37.42;27.20;;;;;;;7.96;79.56;103400.41;5071172;28;20036;-89
2022/01/23 12:29:30;;;;;;;34.60;26.50;;;;;;;7.96;80.08;103398.56;5056328;28;20032;-91
2022/01/23 12:32:26;;;;;;;36.42;26.40;;;;;;;8.31;80.65;103443.25;5071973;28;20037;-92
2022/01/23 12:35:05;;;;;;;34.33;25.98;;;;;;;7.96;80.10;103376.94;5073682;28;20027;-92
2022/01/23 12:38:03;;;;;;;35.90;26.23;;;;;;;8.38;80.21;103440.84;5089237;28;20064;-93
2022/01/23 12:40:43;;;;;;;34.83;25.75;;;;;;;8.19;79.30;103411.88;5074716;28;20107;-93
2022/01/23 12:43:47;;;;;;;33.55;24.30;;;;;;;8.04;80.07;103381.66;5090474;28;20021;-92
2022/01/23 12:46:27;;;;;;;34.58;24.70;;;;;;;8.24;78.53;103415.88;5092664;28;20357;-93
2022/01/23 12:49:40;;;;;;;;;;;;;;;;;;;;;
2022/01/23 12:52:17;;;;;;;34.47;23.88;;;;;;;8.09;77.96;103430.78;5098682;28;20079;-93
2022/01/23 12:55:30;;;;;;;30.70;22.58;;;;;;;7.62;78.45;103365.53;5128056;28;20447;-93
2022/01/23 12:58:18;;;;;;;34.15;23.20;;;;;;;8.01;79.23;103427.91;5092580;28;20038;-93
2022/01/23 13:01:03;;;;;;;36.78;25.20;;;;;;;8.03;78.38;103420.50;5086927;28;20484;-93
2022/01/23 13:03:59;;;;;;;33.97;24.25;;;;;;;7.97;78.35;103391.31;5084910;28;20020;-93
2022/01/23 13:07:15;;;;;;;34.55;25.55;;;;;;;8.11;78.26;103419.84;5065653;28;20136;-93
2022/01/23 13:10:22;;;;;;;33.22;25.70;;;;;;;7.92;78.29;103374.66;5084327;28;20485;-93
2022/01/23 13:31:38;;;;;;;35.08;25.77;;;;;;;7.94;79.23;103365.38;5060856;28;20028;-93
2022/01/23 13:34:40;;;;;;;38.00;27.55;;;;;;;7.78;78.95;103347.00;5039740;28;20033;-93
2022/01/23 13:37:31;;;;;;;41.28;28.02;;;;;;;7.93;79.16;103382.63;5054686;28;20381;-92
2022/01/23 13:40:07;;;;;;;39.72;28.10;;;;;;;7.89;78.85;103379.31;5059261;28;20021;-92
2022/01/23 14:03:11;;;;;;;45.90;31.33;;;;;;;7.80;79.75;103377.44;5067571;28;20051;-94
2022/01/23 14:06:09;;;;;;;38.65;28.63;;;;;;;7.49;79.50;103334.19;5080916;28;20472;-95
2022/01/23 14:09:17;;;;;;;38.65;28.58;;;;;;;7.41;80.71;103315.09;5072343;28;20081;-95
2022/01/23 14:11:45;;;;;;;41.47;29.80;;;;;;;7.34;79.72;103316.63;5078708;28;20027;-94
2022/01/23 14:14:30;;;;;;;37.67;28.27;;;;;;;7.43;80.45;103313.13;5078207;28;20126;-95
2022/01/23 14:17:12;;;;;;;38.75;28.85;;;;;;;7.35;80.61;103313.78;5078528;28;20028;-94
2022/01/23 14:19:40;;;;;;;38.03;28.15;;;;;;;7.84;80.01;103384.28;5078799;28;20020;-94
2022/01/23 14:22:35;;;;;;;39.40;28.00;;;;;;;7.48;80.89;103316.25;5078189;28;20027;-95
2022/01/23 14:25:16;;;;;;;36.40;27.92;;;;;;;7.85;79.67;103382.44;5078680;28;20020;-95
2022/01/23 14:34:35;;;;;;;39.22;27.98;;;;;;;7.65;79.45;103368.81;5066006;28;20567;-94
2022/01/23 14:37:07;;;;;;;36.65;27.02;;;;;;;7.37;80.13;103329.84;5063449;28;20376;-95
2022/01/23 14:44:23;;;;;;;40.45;30.25;;;;;;;7.48;80.94;103348.66;5085368;28;20059;-95
2022/01/23 14:51:16;;;;;;;39.28;29.02;;;;;;;7.40;80.67;103340.41;4967793;28;20310;-95
2022/01/23 14:53:44;;;;;;;38.17;28.02;;;;;;;7.33;79.96;103337.34;5008660;28;20045;-94
2022/01/23 14:56:25;;;;;;;40.90;28.02;;;;;;;7.30;80.28;103328.69;4995181;28;20029;-95
2022/01/23 14:59:14;;;;;;;42.15;28.73;;;;;;;7.55;80.65;103376.88;5070043;28;20070;-94
2022/01/23 15:01:46;;;;;;;37.70;28.02;;;;;;;7.41;80.79;103361.03;5078021;28;20027;-94
2022/01/23 15:04:43;;;;;;;;;;;;;;;;;;;;;
2022/01/23 15:07:20;;;;;;;40.58;28.05;;;;;;;7.18;81.53;103328.75;5051289;28;20039;-95
2022/01/23 15:13:25;;;;;;;;;;;;;;;;;;;;;
2022/01/23 15:16:29;;;;;;;;;;;;;;;;;;;;;
2022/01/23 15:18:56;;;;;;;38.20;28.33;;;;;;;7.20;81.69;103366.41;5092609;28;20024;-95
2022/01/23 15:21:44;;;;;;;42.25;27.20;;;;;;;7.39;82.13;103398.09;5072361;28;20032;-94
2022/01/23 15:24:19;;;;;;;41.67;28.38;;;;;;;6.98;82.15;103348.47;5095650;28;20024;-95
2022/01/23 15:27:00;;;;;;;38.95;27.40;;;;;;;6.91;81.92;103337.38;5062000;28;20066;-95
2022/01/23 15:29:56;;;;;;;38.05;27.45;;;;;;;7.23;82.36;103403.09;5076035;28;20038;-96
2022/01/23 15:32:51;;;;;;;;;;;;;;;;;;;;;
2022/01/23 15:36:02;;;;;;;52.50;36.17;;;;;;;7.07;82.55;103382.81;5096113;28;20369;-95
2022/01/23 15:38:29;;;;;;;38.03;27.60;;;;;;;6.80;81.85;103350.91;5070090;28;20102;-94
2022/01/23 15:41:21;;;;;;;38.05;27.52;;;;;;;7.05;81.82;103403.66;5111241;28;20026;-95
2022/01/23 15:44:24;;;;;;;37.95;27.27;;;;;;;6.70;82.72;103339.16;5080353;28;20039;-95
2022/01/23 15:48:00;;;;;;;37.00;26.40;;;;;;;6.66;83.00;103341.28;5110900;28;20028;-95
2022/01/23 15:50:49;;;;;;;38.03;27.23;;;;;;;6.59;83.34;103335.53;5021178;28;20065;-92
2022/01/23 15:53:23;;;;;;;37.58;26.58;;;;;;;6.42;83.04;103323.47;5074998;28;20433;-94
2022/01/23 15:56:18;;;;;;;39.45;27.73;;;;;;;6.50;83.30;103339.00;5059556;28;20024;-94
2022/01/23 16:01:49;;;;;;;42.58;28.15;;;;;;;6.80;83.83;103389.53;5095724;28;20036;-94
2022/01/23 16:08:38;;;;;;;;;;;;;;;;;;;;;
2022/01/23 16:11:13;;;;;;;43.10;28.02;;;;;;;6.25;84.61;103338.31;5069607;28;20036;-94
2022/01/23 16:14:03;;;;;;;40.22;28.15;;;;;;;6.25;84.97;103345.56;5058082;28;20365;-95